Time;durP1;ratioP1;P1;durP2;ratioP2;P2;SDS_P1;SDS_P2;PMS_P1;PMS_P2;Temp;Humidity;BMP_temperature;BMP_pressure;BME280_temperature;BME280_humidity;BME280_pressure;Samples;Min_cycle;Max_cycle;Signal;HPM_P1;HPM_P2
2023/07/23 00:00:30;;;;;;;2.30;2.10;;;;;;;22.07;49.40;100896.34;5029225;28;20088;-71
2023/07/23 00:02:55;;;;;;;2.65;2.22;;;;;;;22.01;49.43;100889.97;5032102;28;20049;-71
2023/07/23 00:05:23;;;;;;;4.07;2.22;;;;;;;22.08;49.34;100903.28;5029287;28;20037;-71
2023/07/23 00:07:57;;;;;;;3.03;2.30;;;;;;;22.10;49.21;100892.53;5031840;28;20067;-71
2023/07/23 00:10:24;;;;;;;3.88;2.30;;;;;;;22.07;49.38;100885.75;5027476;28;20075;-71
2023/07/23 00:12:49;;;;;;;2.38;2.05;;;;;;;22.10;49.14;100881.91;5032266;28;20537;-72
2023/07/23 00:15:15;;;;;;;3.03;2.08;;;;;;;22.08;49.13;100891.88;5028368;28;20041;-71
2023/07/23 00:17:41;;;;;;;2.58;2.10;;;;;;;22.02;49.49;100885.47;5030188;28;20049;-72
2023/07/23 00:20:09;;;;;;;2.55;2.05;;;;;;;22.06;49.49;100883.28;5030092;28;20033;-72
2023/07/23 00:22:34;;;;;;;2.53;2.30;;;;;;;22.04;49.21;100872.84;5023503;28;20029;-72
2023/07/23 00:25:00;;;;;;;2.95;2.10;;;;;;;22.06;49.24;100872.69;5028071;28;20690;-72
2023/07/23 00:27:26;;;;;;;2.78;2.03;;;;;;;22.01;49.16;100866.09;5025005;28;20037;-71
2023/07/23 00:29:51;;;;;;;3.38;2.53;;;;;;;22.07;49.54;100871.66;5028863;28;20041;-73
2023/07/23 00:32:17;;;;;;;3.20;2.50;;;;;;;22.05;49.55;100869.22;5026916;28;20067;-73
2023/07/23 00:34:42;;;;;;;5.60;1.98;;;;;;;22.06;49.16;100870.84;5043810;28;20410;-72
2023/07/23 00:37:08;;;;;;;3.28;2.40;;;;;;;22.05;49.48;100863.09;5031634;28;20502;-71
2023/07/23 00:39:35;;;;;;;4.47;2.42;;;;;;;22.05;49.34;100861.25;5044734;28;20029;-71
2023/07/23 00:42:01;;;;;;;2.28;2.08;;;;;;;22.01;49.43;100849.38;5029611;28;20096;-72
2023/07/23 00:44:26;;;;;;;2.45;1.85;;;;;;;22.03;49.49;100853.47;5031630;28;20034;-71
2023/07/23 00:46:54;;;;;;;3.35;2.25;;;;;;;22.03;49.23;100850.00;5035710;28;20106;-72
2023/07/23 00:49:20;;;;;;;2.80;2.20;;;;;;;22.01;49.47;100847.53;5032402;28;20954;-71
2023/07/23 00:51:46;;;;;;;2.53;2.10;;;;;;;22.02;49.11;100840.41;5034150;28;20104;-71
2023/07/23 00:54:13;;;;;;;3.65;2.13;;;;;;;22.04;49.10;100838.38;5029792;28;20463;-72
2023/07/23 00:56:40;;;;;;;2.30;2.10;;;;;;;22.03;49.57;100832.25;5051046;28;20041;-72
2023/07/23 00:59:07;;;;;;;2.63;2.13;;;;;;;22.02;49.46;100835.09;5034392;28;20057;-72
2023/07/23 01:01:33;;;;;;;2.75;2.28;;;;;;;21.92;49.41;100816.91;5031418;28;20034;-72
2023/07/23 01:03:58;;;;;;;3.90;2.55;;;;;;;22.01;49.42;100820.19;5031665;28;20045;-71
2023/07/23 01:06:26;;;;;;;3.28;2.20;;;;;;;21.99;49.69;100820.41;5029699;28;20034;-72
2023/07/23 01:08:56;;;;;;;3.25;2.42;;;;;;;21.99;49.25;100814.28;5028106;28;20041;-72
2023/07/23 01:11:24;;;;;;;2.58;2.20;;;;;;;21.99;49.28;100803.66;5030503;28;20036;-72
2023/07/23 01:13:51;;;;;;;3.25;2.22;;;;;;;21.98;49.66;100804.69;5033708;28;20041;-73
2023/07/23 01:16:17;;;;;;;2.60;2.40;;;;;;;21.99;49.45;100801.84;5031136;28;20117;-72
2023/07/23 01:18:43;;;;;;;2.65;2.17;;;;;;;21.89;49.37;100782.78;5033978;28;20041;-71
2023/07/23 01:21:14;;;;;;;2.90;2.17;;;;;;;21.86;49.36;100769.94;5031295;28;20068;-71
2023/07/23 01:23:40;;;;;;;3.40;2.20;;;;;;;21.97;49.66;100797.75;5034629;28;20042;-71
2023/07/23 01:26:07;;;;;;;2.42;1.88;;;;;;;21.98;49.27;100786.94;5037003;28;20167;-73
2023/07/23 01:28:33;;;;;;;3.35;2.30;;;;;;;21.98;49.37;100792.25;5032287;28;20430;-72
2023/07/23 01:30:58;;;;;;;2.83;2.28;;;;;;;21.96;49.43;100786.31;5035326;28;20132;-72
2023/07/23 01:33:25;;;;;;;2.55;2.25;;;;;;;21.95;49.44;100787.34;5033612;28;20034;-72
2023/07/23 01:35:54;;;;;;;3.25;2.15;;;;;;;21.95;49.31;100782.03;5049141;28;20152;-72
2023/07/23 01:38:21;;;;;;;3.13;2.38;;;;;;;21.89;49.42;100764.25;5034196;28;20050;-72
2023/07/23 01:40:47;;;;;;;2.67;2.25;;;;;;;21.95;49.28;100771.44;5034685;28;20052;-72
2023/07/23 01:43:13;;;;;;;3.17;2.40;;;;;;;21.97;49.63;100772.06;5033153;28;20125;-73
2023/07/23 01:45:43;;;;;;;2.42;2.10;;;;;;;21.96;49.60;100770.41;5030316;28;20040;-73
2023/07/23 01:48:08;;;;;;;3.10;1.98;;;;;;;21.96;49.21;100769.59;5030054;28;20103;-73
2023/07/23 01:50:34;;;;;;;4.53;2.25;;;;;;;21.96;49.49;100764.28;5031382;28;20515;-72
2023/07/23 01:52:59;;;;;;;2.47;2.08;;;;;;;21.94;49.50;100761.03;5031024;28;20041;-72
2023/07/23 01:55:25;;;;;;;3.33;2.22;;;;;;;21.96;49.26;100759.00;5031841;28;20634;-72
2023/07/23 01:57:50;;;;;;;3.28;2.20;;;;;;;21.96;49.59;100756.34;5045272;28;20071;-71
2023/07/23 02:00:16;;;;;;;2.88;2.10;;;;;;;21.94;49.76;100758.38;5046809;28;20041;-72
2023/07/23 02:02:41;;;;;;;2.72;2.28;;;;;;;21.94;49.52;100755.72;5030363;28;20060;-71
2023/07/23 02:05:08;;;;;;;3.67;2.40;;;;;;;21.94;49.62;100750.41;5029392;28;20052;-72
2023/07/23 02:07:33;;;;;;;3.67;2.40;;;;;;;21.94;49.57;100747.78;5026678;28;20091;-71
2023/07/23 02:09:59;;;;;;;3.13;2.35;;;;;;;21.94;49.32;100753.06;5033443;28;20037;-71
2023/07/23 02:12:24;;;;;;;3.50;2.33;;;;;;;21.92;49.75;100733.91;5030566;28;20037;-71
2023/07/23 02:14:50;;;;;;;3.28;2.40;;;;;;;21.90;49.76;100744.69;5026785;28;20038;-72
2023/07/23 02:17:16;;;;;;;2.60;2.15;;;;;;;21.90;49.53;100735.91;5027844;28;20049;-72
2023/07/23 02:19:42;;;;;;;2.80;2.17;;;;;;;21.93;49.56;100731.03;5013294;28;20033;-71
2023/07/23 02:22:08;;;;;;;2.38;2.00;;;;;;;21.93;49.10;100730.22;5028948;28;20045;-73
2023/07/23 02:24:33;;;;;;;2.58;2.15;;;;;;;21.91;49.62;100727.78;5028230;28;20034;-73
2023/07/23 02:26:59;;;;;;;3.42;2.33;;;;;;;21.91;49.58;100719.00;5031805;28;20037;-71
2023/07/23 02:29:25;;;;;;;3.95;2.10;;;;;;;21.91;49.72;100717.16;5030964;28;20695;-72
2023/07/23 02:31:50;;;;;;;3.22;2.40;;;;;;;21.91;49.44;100709.22;5042392;28;20046;-71
2023/07/23 02:34:16;;;;;;;2.95;2.15;;;;;;;21.88;49.64;100704.28;5029189;28;20034;-72
2023/07/23 02:36:45;;;;;;;2.90;2.20;;;;;;;21.88;49.63;100698.97;5027893;28;20057;-73
2023/07/23 02:39:10;;;;;;;2.55;2.30;;;;;;;21.90;49.60;100710.22;5027802;28;20076;-72
2023/07/23 02:41:36;;;;;;;2.80;2.03;;;;;;;21.89;49.65;100703.25;5030657;28;20599;-71
2023/07/23 02:44:01;;;;;;;2.20;2.00;;;;;;;21.90;49.36;100707.56;5029186;28;20041;-72
2023/07/23 02:46:27;;;;;;;2.78;2.10;;;;;;;21.89;49.74;100697.97;5028925;28;20041;-72
2023/07/23 02:48:53;;;;;;;3.05;2.10;;;;;;;21.88;49.57;100691.03;5045658;28;20052;-72
2023/07/23 02:51:18;;;;;;;2.97;2.28;;;;;;;21.88;49.56;100698.97;5029678;28;20846;-71
2023/07/23 02:53:44;;;;;;;2.83;2.03;;;;;;;21.87;49.50;100697.34;5027564;28;20106;-72
2023/07/23 02:56:10;;;;;;;2.58;2.00;;;;;;;21.81;49.68;100681.41;5029655;28;20455;-71
2023/07/23 02:58:35;;;;;;;2.28;1.90;;;;;;;21.90;49.69;100696.13;5030044;28;20472;-72
2023/07/23 03:01:01;;;;;;;2.75;2.20;;;;;;;21.91;49.80;100690.66;5025653;28;20038;-72
2023/07/23 03:03:26;;;;;;;3.70;2.17;;;;;;;21.90;49.74;100685.53;5045545;28;20052;-71
2023/07/23 03:05:52;;;;;;;2.78;1.77;;;;;;;21.87;49.42;100680.63;5024868;28;20053;-73
2023/07/23 03:08:17;;;;;;;4.60;2.25;;;;;;;21.84;49.84;100676.53;5028378;28;20041;-72
2023/07/23 03:10:43;;;;;;;2.88;1.98;;;;;;;21.88;49.74;100679.59;5029617;28;20069;-71
2023/07/23 03:13:09;;;;;;;3.33;2.17;;;;;;;21.83;49.36;100674.09;5027463;28;20046;-71
2023/07/23 03:15:34;;;;;;;2.80;2.20;;;;;;;21.87;49.76;100670.03;5030147;28;20074;-72
2023/07/23 03:18:01;;;;;;;2.70;1.98;;;;;;;21.86;49.50;100663.06;5031296;28;20072;-72
2023/07/23 03:20:27;;;;;;;3.33;2.05;;;;;;;21.87;49.37;100665.53;5032960;28;20496;-71
2023/07/23 03:22:53;;;;;;;2.30;1.88;;;;;;;21.87;49.46;100665.53;5033798;28;20068;-71
2023/07/23 03:25:18;;;;;;;3.17;1.90;;;;;;;21.86;49.46;100661.25;5030637;28;20065;-72
2023/07/23 03:27:44;;;;;;;2.75;2.33;;;;;;;21.86;49.58;100665.72;5033038;28;20045;-72
2023/07/23 03:30:11;;;;;;;3.35;1.98;;;;;;;21.85;49.42;100656.16;5028258;28;20074;-70
2023/07/23 03:32:36;;;;;;;3.17;2.17;;;;;;;21.83;49.72;100656.34;5032808;28;20033;-71
2023/07/23 03:35:02;;;;;;;2.20;1.98;;;;;;;21.84;49.49;100649.22;5031344;28;20052;-72
2023/07/23 03:37:28;;;;;;;2.40;1.90;;;;;;;21.86;49.76;100649.81;5032334;28;20041;-72
2023/07/23 03:39:53;;;;;;;3.10;2.08;;;;;;;21.84;49.68;100649.22;5033977;28;20111;-72
2023/07/23 03:42:19;;;;;;;4.07;2.17;;;;;;;21.82;49.59;100649.41;5033788;28;20064;-71
2023/07/23 03:44:45;;;;;;;3.03;2.20;;;;;;;21.85;49.51;100653.50;5046746;28;20144;-70
2023/07/23 03:47:16;;;;;;;2.42;2.10;;;;;;;21.83;49.40;100644.94;5028076;28;20834;-72
2023/07/23 03:49:42;;;;;;;2.75;2.30;;;;;;;21.82;49.62;100643.28;5028923;28;20168;-72
2023/07/23 03:52:08;;;;;;;2.10;1.88;;;;;;;21.82;49.65;100644.09;5028114;28;20097;-71
2023/07/23 03:54:34;;;;;;;2.30;2.08;;;;;;;21.83;49.83;100653.69;5024622;28;21299;-71
2023/07/23 03:57:00;;;;;;;3.05;2.40;;;;;;;21.81;49.71;100647.78;5045344;28;20142;-71
2023/07/23 03:59:33;;;;;;;4.15;2.35;;;;;;;21.82;49.84;100646.75;5026538;28;20058;-71
2023/07/23 04:01:59;;;;;;;3.15;2.13;;;;;;;21.83;49.68;100640.44;5028048;28;20046;-72
2023/07/23 04:04:24;;;;;;;3.00;2.22;;;;;;;21.82;49.69;100636.16;5028642;28;20044;-71
2023/07/23 04:06:50;;;;;;;2.78;2.20;;;;;;;21.73;49.75;100620.63;5029903;28;20886;-72
2023/07/23 04:09:16;;;;;;;2.97;2.03;;;;;;;21.82;49.55;100635.34;5041230;28;20033;-70
2023/07/23 04:11:42;;;;;;;3.17;2.25;;;;;;;21.82;49.55;100636.16;5028312;28;20041;-72
2023/07/23 04:14:08;;;;;;;3.58;2.30;;;;;;;21.82;49.69;100628.19;5024422;28;20490;-71
2023/07/23 04:16:33;;;;;;;3.40;2.08;;;;;;;21.83;49.49;100629.84;5028088;28;20029;-72
2023/07/23 04:18:59;;;;;;;3.33;2.00;;;;;;;21.50;49.59;100560.78;5023835;28;20100;-71
2023/07/23 04:21:25;;;;;;;2.47;2.20;;;;;;;21.84;49.48;100617.41;5024151;28;20025;-71
2023/07/23 04:23:53;;;;;;;3.42;2.47;;;;;;;21.82;49.78;100612.28;5024497;28;20072;-71
2023/07/23 04:26:21;;;;;;;2.15;1.70;;;;;;;21.81;49.82;100602.72;5043530;28;20079;-70
2023/07/23 04:28:47;;;;;;;3.63;2.30;;;;;;;21.81;49.69;100608.00;5025027;28;20464;-71
2023/07/23 04:31:13;;;;;;;3.30;2.47;;;;;;;21.78;49.64;100595.16;5024903;28;20045;-71
2023/07/23 04:33:39;;;;;;;3.63;1.92;;;;;;;21.81;49.71;100607.19;5024452;28;20037;-71
2023/07/23 04:36:07;;;;;;;4.10;2.30;;;;;;;21.81;49.67;100593.94;5028269;28;20106;-71
2023/07/23 04:38:33;;;;;;;3.00;2.05;;;;;;;21.85;49.79;100597.81;5027143;28;20740;-71
2023/07/23 04:40:59;;;;;;;3.45;2.40;;;;;;;21.82;49.66;100583.13;5028810;28;20041;-71
2023/07/23 04:43:24;;;;;;;4.32;2.78;;;;;;;21.81;49.43;100578.84;5027554;28;20041;-72
2023/07/23 04:45:50;;;;;;;2.30;2.00;;;;;;;21.78;49.64;100581.09;5029312;28;20030;-70
2023/07/23 04:48:16;;;;;;;2.75;2.03;;;;;;;21.58;49.59;100552.69;5024771;28;20049;-72
2023/07/23 04:50:42;;;;;;;3.33;2.38;;;;;;;21.79;49.59;100583.53;5029735;28;21587;-71
2023/07/23 04:53:08;;;;;;;3.45;2.28;;;;;;;21.81;49.42;100581.50;5026736;28;20566;-72
2023/07/23 04:55:34;;;;;;;3.90;2.30;;;;;;;21.73;49.79;100568.44;5027841;28;20033;-72
2023/07/23 04:57:59;;;;;;;2.97;2.10;;;;;;;21.80;49.83;100579.06;5028033;28;20638;-73
2023/07/23 05:00:26;;;;;;;2.78;2.17;;;;;;;21.80;49.76;100581.72;5030328;28;20041;-72
2023/07/23 05:02:51;;;;;;;4.13;2.53;;;;;;;21.79;49.65;100578.25;5028348;28;20060;-72
2023/07/23 05:05:17;;;;;;;2.30;1.90;;;;;;;21.79;49.66;100572.13;5029308;28;20033;-72
2023/07/23 05:07:42;;;;;;;2.70;2.20;;;;;;;21.55;49.78;100539.84;5027624;28;20045;-72
2023/07/23 05:10:08;;;;;;;2.60;1.98;;;;;;;21.73;49.81;100562.31;5030039;28;20052;-73
2023/07/23 05:12:34;;;;;;;3.33;2.22;;;;;;;21.74;49.79;100562.13;5025771;28;20354;-72
2023/07/23 05:15:11;;;;;;;3.15;2.42;;;;;;;21.78;49.47;100570.50;5026012;28;20052;-72
2023/07/23 05:17:37;;;;;;;3.15;2.20;;;;;;;21.77;49.47;100566.22;5030365;28;20484;-72
2023/07/23 05:20:05;;;;;;;3.55;2.28;;;;;;;21.78;49.49;100567.84;5027192;28;20068;-72
2023/07/23 05:22:31;;;;;;;3.65;2.15;;;;;;;21.78;49.71;100563.34;5031694;28;20407;-73
2023/07/23 05:24:57;;;;;;;2.80;2.17;;;;;;;21.79;49.67;100553.56;5027229;28;20056;-72
2023/07/23 05:27:22;;;;;;;2.42;1.90;;;;;;;21.77;49.62;100548.47;5031029;28;20037;-72
2023/07/23 05:29:48;;;;;;;4.75;2.72;;;;;;;21.77;49.65;100545.00;5029908;28;20029;-72
2023/07/23 05:32:13;;;;;;;4.60;2.60;;;;;;;21.69;49.22;100533.56;5033141;28;20060;-72
2023/07/23 05:34:39;;;;;;;3.63;2.20;;;;;;;21.78;49.79;100542.16;5038421;28;20046;-73
2023/07/23 05:37:04;;;;;;;4.13;2.50;;;;;;;21.78;49.75;100530.72;5034685;28;20164;-73
2023/07/23 05:39:30;;;;;;;2.65;2.30;;;;;;;21.79;49.48;100529.72;5036279;28;20045;-71
2023/07/23 05:41:56;;;;;;;3.60;2.22;;;;;;;21.77;49.84;100521.97;5031376;28;20038;-71
2023/07/23 05:44:21;;;;;;;2.50;2.00;;;;;;;21.68;49.68;100507.25;5036469;28;20625;-71
2023/07/23 05:46:47;;;;;;;2.38;2.00;;;;;;;21.75;49.62;100526.66;5036673;28;20039;-72
2023/07/23 05:49:12;;;;;;;2.45;2.03;;;;;;;21.75;49.47;100520.53;5035139;28;20046;-72
2023/07/23 05:51:38;;;;;;;3.05;2.30;;;;;;;21.77;49.88;100521.16;5028577;28;20044;-72
2023/07/23 05:54:03;;;;;;;3.72;2.42;;;;;;;21.67;49.80;100497.66;5043493;28;20037;-71
2023/07/23 05:56:31;;;;;;;4.15;2.58;;;;;;;21.76;49.84;100504.44;5029759;28;20298;-72
2023/07/23 05:58:57;;;;;;;5.55;2.17;;;;;;;21.77;49.78;100505.25;5034465;28;20148;-72
2023/07/23 06:01:22;;;;;;;3.03;2.15;;;;;;;21.76;49.58;100495.66;5034114;28;20046;-71
2023/07/23 06:03:48;;;;;;;2.45;2.17;;;;;;;21.76;49.70;100501.78;5035719;28;20618;-72
2023/07/23 06:06:13;;;;;;;3.75;2.28;;;;;;;21.75;49.79;100496.69;5033557;28;20078;-73
2023/07/23 06:08:39;;;;;;;3.30;2.10;;;;;;;21.78;49.79;100496.28;5030930;28;20045;-74
2023/07/23 06:11:04;;;;;;;2.88;2.20;;;;;;;21.74;49.55;100493.22;5029881;28;20041;-73
2023/07/23 06:13:30;;;;;;;3.28;2.30;;;;;;;21.79;49.71;100484.66;5045828;28;20450;-71
2023/07/23 06:15:55;;;;;;;2.33;2.05;;;;;;;21.78;49.76;100493.63;5026645;28;20056;-71
2023/07/23 06:18:21;;;;;;;4.22;2.40;;;;;;;21.74;49.76;100479.16;5031553;28;20312;-71
2023/07/23 06:20:46;;;;;;;2.80;2.30;;;;;;;21.77;49.71;100486.69;5027285;28;20061;-71
2023/07/23 06:23:12;;;;;;;3.15;2.20;;;;;;;21.80;49.59;100495.06;5031119;28;20383;-71
2023/07/23 06:25:39;;;;;;;3.25;2.33;;;;;;;21.81;49.48;100486.09;5027061;28;20057;-72
2023/07/23 06:28:04;;;;;;;2.85;2.42;;;;;;;21.83;49.48;100494.66;5028142;28;20227;-71
2023/07/23 06:30:31;;;;;;;2.90;2.20;;;;;;;21.84;49.69;100493.63;5028821;28;20069;-72
2023/07/23 06:32:57;;;;;;;3.47;2.53;;;;;;;21.83;49.77;100486.69;5027781;28;20112;-71
2023/07/23 06:35:22;;;;;;;2.67;2.10;;;;;;;21.83;49.34;100494.66;5030964;28;20049;-71
2023/07/23 06:37:48;;;;;;;3.22;2.30;;;;;;;21.84;49.40;100482.22;5029660;28;20056;-72
2023/07/23 06:40:13;;;;;;;3.33;2.40;;;;;;;21.83;49.43;100491.19;5030123;28;20132;-70
2023/07/23 06:42:39;;;;;;;3.05;2.13;;;;;;;21.86;49.29;100491.59;5029651;28;20091;-71
2023/07/23 06:45:04;;;;;;;2.65;2.15;;;;;;;21.80;49.64;100494.25;5029036;28;20625;-72
2023/07/23 06:47:30;;;;;;;4.60;2.38;;;;;;;21.83;49.62;100486.69;5028287;28;20034;-74
2023/07/23 06:49:56;;;;;;;2.80;2.40;;;;;;;21.86;49.77;100490.78;5028697;28;20041;-72
2023/07/23 06:52:21;;;;;;;3.17;2.40;;;;;;;21.83;49.38;100486.69;5027992;28;20093;-73
2023/07/23 06:54:47;;;;;;;3.25;2.28;;;;;;;21.87;49.58;100479.97;5028081;28;20053;-73
2023/07/23 06:57:12;;;;;;;2.60;2.10;;;;;;;21.89;49.56;100482.41;5031099;28;20033;-72
2023/07/23 06:59:38;;;;;;;2.85;1.95;;;;;;;21.92;49.59;100482.03;5031727;28;20049;-72
2023/07/23 07:02:03;;;;;;;2.42;2.00;;;;;;;21.97;49.15;100484.91;5028792;28;20037;-72
2023/07/23 07:04:29;;;;;;;3.97;2.35;;;;;;;21.93;49.18;100476.53;5029240;28;20045;-72
2023/07/23 07:06:54;;;;;;;2.28;2.08;;;;;;;21.92;49.48;100479.41;5025415;28;20545;-73
2023/07/23 07:09:20;;;;;;;3.55;2.30;;;;;;;21.90;49.60;100481.41;5027900;28;20059;-73
2023/07/23 07:11:45;;;;;;;2.63;2.30;;;;;;;21.91;49.64;100481.22;5030577;28;20034;-71
2023/07/23 07:14:11;;;;;;;2.92;2.20;;;;;;;21.92;49.40;100482.03;5026449;28;20033;-74
2023/07/23 07:16:37;;;;;;;3.58;2.50;;;;;;;21.92;49.48;100472.25;5031929;28;20038;-73
2023/07/23 07:19:02;;;;;;;2.55;2.08;;;;;;;21.94;49.47;100477.34;5029351;28;20153;-73
2023/07/23 07:21:28;;;;;;;2.72;2.17;;;;;;;21.93;49.20;100481.84;5027968;28;20038;-73
2023/07/23 07:23:53;;;;;;;2.88;2.20;;;;;;;21.96;49.31;100470.81;5031190;28;20123;-73
2023/07/23 07:26:19;;;;;;;4.78;2.40;;;;;;;21.87;48.98;100452.66;5025966;28;20037;-72
2023/07/23 07:28:44;;;;;;;3.83;2.53;;;;;;;21.96;49.26;100468.19;5029297;28;20049;-73
2023/07/23 07:31:11;;;;;;;3.78;2.03;;;;;;;21.95;49.13;100466.53;5030707;28;20037;-71
2023/07/23 07:33:38;;;;;;;3.22;2.38;;;;;;;21.92;49.13;100452.88;5028600;28;20383;-71
2023/07/23 07:36:04;;;;;;;4.03;2.40;;;;;;;21.97;49.09;100469.00;5030038;28;20054;-72
2023/07/23 07:38:30;;;;;;;4.57;2.53;;;;;;;21.90;49.07;100454.88;5027417;28;20069;-71
2023/07/23 07:41:00;;;;;;;4.20;2.33;;;;;;;21.98;49.20;100467.97;5026415;28;20093;-70
2023/07/23 07:43:25;;;;;;;;;;;;;;;21.97;49.29;100461.84;5001579;28;20091;-71
2023/07/23 07:45:59;;;;;;;4.05;2.60;;;;;;;21.98;49.30;100460.00;5032103;28;19925;-72
2023/07/23 07:48:25;;;;;;;2.80;2.28;;;;;;;21.99;48.97;100456.34;5023701;28;20048;-72
2023/07/23 07:51:02;;;;;;;3.47;2.15;;;;;;;21.99;49.48;100454.50;5023803;28;20046;-72
2023/07/23 07:53:28;;;;;;;2.67;2.15;;;;;;;21.96;49.17;100452.28;5029061;28;20123;-70
2023/07/23 07:55:55;;;;;;;3.47;2.35;;;;;;;22.00;49.45;100450.84;5029091;28;20072;-70
2023/07/23 07:58:24;;;;;;;3.97;2.33;;;;;;;21.86;49.25;100433.28;5026940;28;20053;-72
2023/07/23 08:01:02;;;;;;;4.10;2.42;;;;;;;21.99;48.93;100457.16;5026133;28;20033;-71
2023/07/23 08:03:29;;;;;;;2.85;2.22;;;;;;;21.97;49.02;100459.19;5027420;28;20803;-73
2023/07/23 08:05:55;;;;;;;3.30;2.20;;;;;;;21.97;49.29;100463.69;5028502;28;20033;-72
2023/07/23 08:08:40;;;;;;;3.95;2.20;;;;;;;21.97;49.43;100456.56;5027822;28;20041;-72
2023/07/23 08:11:07;;;;;;;3.67;2.58;;;;;;;21.96;49.42;100452.28;5028414;28;20054;-72
2023/07/23 08:13:36;;;;;;;4.00;2.38;;;;;;;21.97;49.08;100461.84;5028383;28;20042;-73
2023/07/23 08:16:02;;;;;;;2.85;2.17;;;;;;;21.97;49.54;100453.09;5028313;28;20033;-75
2023/07/23 08:18:27;;;;;;;4.05;2.70;;;;;;;21.95;49.50;100468.38;5022671;28;20626;-73
2023/07/23 08:20:57;;;;;;;3.17;2.60;;;;;;;21.98;49.19;100457.38;5029648;28;20044;-74
2023/07/23 08:23:25;;;;;;;3.15;2.30;;;;;;;21.95;49.34;100463.06;5030505;28;20091;-72
2023/07/23 08:25:55;;;;;;;4.10;2.53;;;;;;;21.98;49.24;100466.13;5027791;28;20083;-72
2023/07/23 08:28:23;;;;;;;3.35;2.50;;;;;;;21.98;49.14;100465.31;5021495;28;20061;-72
2023/07/23 08:30:49;;;;;;;4.00;2.00;;;;;;;21.98;49.03;100466.13;5025370;28;20063;-72
2023/07/23 08:33:17;;;;;;;3.65;2.60;;;;;;;22.00;49.19;100471.22;5027666;28;20513;-73
2023/07/23 08:35:43;;;;;;;2.65;2.13;;;;;;;21.98;49.39;100466.13;5030440;28;20053;-72
2023/07/23 08:38:10;;;;;;;3.58;2.47;;;;;;;21.99;49.35;100473.06;5026843;28;20056;-72
2023/07/23 08:40:42;;;;;;;3.30;2.53;;;;;;;21.95;49.55;100465.72;5028218;28;20065;-72
2023/07/23 08:43:27;;;;;;;3.63;2.50;;;;;;;21.94;49.24;100467.56;5025733;28;20037;-72
2023/07/23 08:46:21;;;;;;;3.78;2.67;;;;;;;21.96;49.34;100475.31;5028608;28;20056;-71
2023/07/23 08:48:56;;;;;;;3.50;2.40;;;;;;;21.96;49.43;100470.00;5029122;28;20045;-72
2023/07/23 08:51:30;;;;;;;3.45;2.50;;;;;;;21.92;49.39;100466.13;5024957;28;20083;-73
2023/07/23 08:53:56;;;;;;;2.70;2.20;;;;;;;21.99;49.09;100472.25;5028811;28;20048;-73
2023/07/23 08:56:22;;;;;;;3.85;2.45;;;;;;;21.75;49.11;100441.03;5045532;28;20111;-74
2023/07/23 08:58:49;;;;;;;3.70;2.53;;;;;;;21.98;49.40;100481.22;5032353;28;20826;-74
2023/07/23 09:01:16;;;;;;;3.38;2.50;;;;;;;21.87;49.38;100474.66;5040819;28;21068;-73
2023/07/23 09:03:41;;;;;;;4.28;2.83;;;;;;;21.97;49.44;100474.28;5034213;28;20056;-74
2023/07/23 09:06:08;;;;;;;5.85;2.55;;;;;;;21.97;49.44;100477.75;5030382;28;20037;-73
2023/07/23 09:08:34;;;;;;;3.05;2.63;;;;;;;21.96;49.30;100477.97;5034999;28;20064;-73
2023/07/23 09:11:04;;;;;;;3.90;2.90;;;;;;;21.96;49.53;100485.91;5032665;28;20438;-75
2023/07/23 09:13:33;;;;;;;;;;;;;;;21.96;49.35;100489.38;5030628;28;20033;-74
2023/07/23 09:15:58;;;;;;;3.70;2.55;;;;;;;21.98;49.27;100479.38;5034081;28;19932;-74
2023/07/23 09:18:24;;;;;;;4.28;2.60;;;;;;;21.98;49.43;100474.09;5029437;28;20045;-74
2023/07/23 09:20:50;;;;;;;3.78;2.75;;;;;;;21.96;49.18;100476.13;5028946;28;20049;-74
2023/07/23 09:23:16;;;;;;;3.95;2.72;;;;;;;21.82;49.43;100461.22;5032756;28;20033;-75
2023/07/23 09:25:44;;;;;;;3.40;2.47;;;;;;;21.98;49.17;100483.88;5028199;28;20030;-74
2023/07/23 09:28:25;;;;;;;3.58;2.50;;;;;;;21.96;49.61;100481.44;5031232;28;20431;-74
2023/07/23 09:30:56;;;;;;;3.72;2.60;;;;;;;21.93;49.64;100481.84;5031673;28;20045;-73
2023/07/23 09:33:27;;;;;;;3.08;2.22;;;;;;;21.84;49.50;100472.44;5028555;28;20044;-74
2023/07/23 09:35:58;;;;;;;3.45;2.03;;;;;;;21.98;49.20;100491.84;5034620;28;20185;-78
2023/07/23 09:38:24;;;;;;;3.30;2.30;;;;;;;21.95;49.37;100493.06;5029208;28;20041;-79
2023/07/23 09:40:50;;;;;;;3.40;2.42;;;;;;;21.97;49.49;100488.38;5032643;28;20060;-76
2023/07/23 09:43:15;;;;;;;3.50;2.45;;;;;;;21.81;49.26;100472.03;5031157;28;20049;-78
2023/07/23 09:45:41;;;;;;;4.55;2.63;;;;;;;21.98;49.41;100487.34;5032286;28;20088;-78
2023/07/23 09:48:07;;;;;;;3.30;2.50;;;;;;;21.99;49.57;100488.16;5034482;28;20056;-78
2023/07/23 09:50:33;;;;;;;4.28;2.58;;;;;;;21.98;49.43;100494.47;5031343;28;20530;-78
2023/07/23 09:52:59;;;;;;;3.35;2.63;;;;;;;21.99;49.49;100486.31;5030537;28;20026;-78
2023/07/23 09:55:24;;;;;;;3.10;2.30;;;;;;;21.74;49.55;100456.13;5028521;28;20041;-79
2023/07/23 09:57:51;;;;;;;3.17;2.53;;;;;;;21.94;49.30;100496.72;5027945;28;20049;-76
2023/07/23 10:00:18;;;;;;;3.65;2.80;;;;;;;21.94;49.49;100496.72;5044859;28;20057;-77
2023/07/23 10:02:47;;;;;;;3.72;2.85;;;;;;;21.97;49.49;100501.63;5028970;28;20098;-77
2023/07/23 10:05:15;;;;;;;3.75;2.72;;;;;;;21.96;49.43;100497.34;5034076;28;20082;-70
2023/07/23 10:07:41;;;;;;;4.32;2.85;;;;;;;21.98;49.62;100494.47;5028647;28;20097;-70
2023/07/23 10:10:07;;;;;;;4.80;2.97;;;;;;;21.96;49.73;100492.03;5035189;28;20551;-71
2023/07/23 10:12:33;;;;;;;3.33;2.50;;;;;;;21.96;50.07;100489.38;5032826;28;20037;-70
2023/07/23 10:15:00;;;;;;;4.20;2.50;;;;;;;21.96;49.86;100499.16;5030643;28;20607;-71
2023/07/23 10:17:28;;;;;;;3.65;2.70;;;;;;;21.95;49.53;100495.72;5033637;28;20037;-71
2023/07/23 10:19:56;;;;;;;4.05;2.60;;;;;;;21.95;49.46;100490.41;5031097;28;20923;-71
2023/07/23 10:22:25;;;;;;;3.30;2.80;;;;;;;21.95;49.57;100489.59;5025825;28;20029;-70
2023/07/23 10:24:52;;;;;;;4.13;2.57;;;;;;;21.87;49.83;100479.16;5032548;28;20043;-71
2023/07/23 10:27:18;;;;;;;4.68;2.60;;;;;;;21.78;49.75;100465.28;5025663;28;20037;-72
2023/07/23 10:30:15;;;;;;;4.00;2.53;;;;;;;21.94;49.93;100490.59;5030629;28;20549;-73
2023/07/23 10:32:40;;;;;;;3.40;2.70;;;;;;;21.94;49.75;100495.91;5045589;28;20037;-72
2023/07/23 10:35:06;;;;;;;3.83;2.40;;;;;;;21.88;49.61;100478.97;5026977;28;20049;-72
2023/07/23 10:37:31;;;;;;;3.58;2.65;;;;;;;21.92;49.43;100476.75;5033776;28;20042;-72
2023/07/23 10:40:00;;;;;;;3.35;2.35;;;;;;;21.93;49.45;100481.84;5029003;28;20475;-71
2023/07/23 10:42:28;;;;;;;5.05;2.40;;;;;;;21.97;49.38;100500.81;5032569;28;20056;-72
2023/07/23 10:45:21;;;;;;;4.57;2.42;;;;;;;21.94;49.69;100494.06;5028869;28;20421;-72
2023/07/23 10:47:50;;;;;;;3.33;2.50;;;;;;;21.94;49.60;100485.31;5028677;28;20083;-71
2023/07/23 10:50:17;;;;;;;4.25;2.47;;;;;;;21.95;49.79;100492.25;5030852;28;20041;-72
2023/07/23 10:52:48;;;;;;;3.08;2.55;;;;;;;21.82;49.71;100471.81;5028184;28;20051;-71
2023/07/23 10:55:34;;;;;;;3.42;2.45;;;;;;;21.96;49.73;100484.09;5030609;28;20041;-73
2023/07/23 10:58:08;;;;;;;3.40;2.42;;;;;;;21.90;49.38;100482.25;5028609;28;20061;-71
2023/07/23 11:00:34;;;;;;;2.88;2.47;;;;;;;21.88;49.84;100472.84;5029319;28;20455;-72
2023/07/23 11:03:00;;;;;;;3.92;2.85;;;;;;;21.97;49.59;100490.19;5028914;28;20037;-69
2023/07/23 11:05:26;;;;;;;3.80;2.55;;;;;;;21.96;49.39;100484.09;5029688;28;20049;-71
2023/07/23 11:08:23;;;;;;;2.95;2.30;;;;;;;21.98;49.55;100487.34;5022873;28;20065;-74
2023/07/23 11:11:00;;;;;;;2.67;2.30;;;;;;;21.99;49.31;100488.16;5026491;28;20029;-73
2023/07/23 11:13:27;;;;;;;4.18;2.50;;;;;;;21.96;49.58;100484.09;5033584;28;20041;-73
2023/07/23 11:15:54;;;;;;;4.63;2.50;;;;;;;22.00;49.28;100493.25;5027194;28;20041;-73
2023/07/23 11:18:20;;;;;;;5.13;2.65;;;;;;;22.00;49.22;100493.25;5028850;28;20037;-73
2023/07/23 11:20:50;;;;;;;3.35;2.58;;;;;;;22.02;49.61;100493.06;5028348;28;20567;-73
2023/07/23 11:23:16;;;;;;;3.42;2.65;;;;;;;21.93;49.33;100478.38;5028060;28;20040;-73
2023/07/23 11:25:43;;;;;;;4.57;2.35;;;;;;;21.98;49.41;100495.31;5029936;28;20129;-72